Incline Village, NV

2:21 PM PDT on September 02, 2014 (GMT -0700)
Crystal Vista | Change Station
CLOSE
Current Station
Personal Weather Station
Location: Incline Village, NV
Elevation: 7050 ft
Nearby Weather Stations

Elev 7050 ft 39.26 °N, 119.97 °W | Updated 35 seconds ago

Clear
Clear
73.7 °F
Feels Like 76 °F
N
9.0
Wind Variable Wind from SE
Gusts 16.0 mph

Today
High -- | Low -- °F
--% Chance of Precip.
Yesterday
High -- | Low -- °F
Precip. -- in
6:29 AM 7:28 PM
First Quarter, 55% visible
Pressure 30.07 in
Visibility 10.0 miles
Clouds Clear
Heat Index 76 °F
Dew Point 38 °F
Humidity 27%
Rainfall 0.00 in
Snow Depth Not available.
UV 10 out of 12
Pollen 8.20 out of 12
Air Quality Not available.
Flu Activity Not available.
METAR KTRK 022045Z 26014G21KT 10SM SKC 28/01 A3007 RMK NOSPECI

More Conditions Fewer Conditions

Pressure 30.07 in
Visibility 10.0 miles
Clouds Clear
Heat Index 76 °F
Dew Point 38 °F
Humidity 27%
Rainfall 0.00 in
Snow Depth Not available.
UV 10 out of 12
Pollen 8.20 out of 12
Air Quality Not available.
Flu Activity Not available.
METAR KTRK 022045Z 26014G21KT 10SM SKC 28/01 A3007 RMK NOSPECI

More Conditions Fewer Conditions

10-Day Weather Forecast

Almanac

Astronomy

Sep. 02, 2014 Rise Set
Actual Time 6:29 AM PDT 7:28 PM PDT
Civil Twilight 6:01 AM PDT 7:56 PM PDT
Nautical Twilight 5:29 AM PDT 8:28 PM PDT
Astronomical Twilight 4:55 AM PDT 9:02 PM PDT
Moon 2:15 PM PDT No Moon Set
Length of Visible Light 13h 54m
Length of Day
12h 59m
Tomorrow will be 2m 27s shorter.
First Quarter, 55% of the Moon is Illuminated
Today
First Quarter
Sep 8
Full
Sep 15
Last Quarter
Sep 24
New
Oct 1
First Quarter

Today's Extremes

State Highs State Lows

Community

WunderPhotos

Upload Photos

1,749,769 photos uploaded!

Nearby

Snow Depth

Station Depth Elevation
Sheldon 0 in 5860 ft
Lamance Creek 0 in 6000 ft
Granite Peak 0 in 7800 ft
Buckskin Lower 2 in 6700 ft
Diamond Peak 0 in 8000 ft

Earthquake Activity

City Distance Mag. Time & Date
No recent earthquake activity has been reported nearby.
Minimum magnitude displayed is 2.5.

Coastal Water Temperatures

Place Temperature
No Stations Reporting

Nearby Weather Stations